sensor_id;sensor_type;location;lat;lon;timestamp;temperature;humidity
22917;DHT22;11624;53.250;7.456;2023-12-20T00:02:18;11.71;59.99
22917;DHT22;11624;53.250;7.456;2023-12-20T00:04:46;11.72;59.98
22917;DHT22;11624;53.250;7.456;2023-12-20T00:07:15;11.69;60.05
22917;DHT22;11624;53.250;7.456;2023-12-20T00:09:44;11.75;59.95
22917;DHT22;11624;53.250;7.456;2023-12-20T00:12:12;11.79;59.94
22917;DHT22;11624;53.250;7.456;2023-12-20T00:14:40;11.78;60.09
22917;DHT22;11624;53.250;7.456;2023-12-20T00:17:09;11.87;59.81
22917;DHT22;11624;53.250;7.456;2023-12-20T00:19:38;11.81;59.97
22917;DHT22;11624;53.250;7.456;2023-12-20T00:22:06;11.83;59.79
22917;DHT22;11624;53.250;7.456;2023-12-20T00:24:34;11.81;59.76
22917;DHT22;11624;53.250;7.456;2023-12-20T00:27:03;11.83;59.45
22917;DHT22;11624;53.250;7.456;2023-12-20T00:29:31;11.75;59.35
22917;DHT22;11624;53.250;7.456;2023-12-20T00:31:59;11.74;59.51
22917;DHT22;11624;53.250;7.456;2023-12-20T00:34:29;11.76;59.41
22917;DHT22;11624;53.250;7.456;2023-12-20T00:36:57;11.78;59.19
22917;DHT22;11624;53.250;7.456;2023-12-20T00:39:25;11.72;59.44
22917;DHT22;11624;53.250;7.456;2023-12-20T00:41:53;11.72;59.43
22917;DHT22;11624;53.250;7.456;2023-12-20T00:44:22;11.70;59.41
22917;DHT22;11624;53.250;7.456;2023-12-20T00:46:50;11.69;59.30
22917;DHT22;11624;53.250;7.456;2023-12-20T00:49:18;11.68;59.31
22917;DHT22;11624;53.250;7.456;2023-12-20T00:51:48;11.67;59.22
22917;DHT22;11624;53.250;7.456;2023-12-20T00:54:17;11.66;59.32
22917;DHT22;11624;53.250;7.456;2023-12-20T00:56:45;11.66;59.19
22917;DHT22;11624;53.250;7.456;2023-12-20T00:59:13;11.68;58.96
22917;DHT22;11624;53.250;7.456;2023-12-20T01:01:42;11.64;59.06
22917;DHT22;11624;53.250;7.456;2023-12-20T01:04:10;11.63;59.17
22917;DHT22;11624;53.250;7.456;2023-12-20T01:06:39;11.64;59.12
22917;DHT22;11624;53.250;7.456;2023-12-20T01:09:08;11.67;59.14
22917;DHT22;11624;53.250;7.456;2023-12-20T01:11:36;11.63;59.24
22917;DHT22;11624;53.250;7.456;2023-12-20T01:14:05;11.69;59.29
22917;DHT22;11624;53.250;7.456;2023-12-20T01:16:33;11.71;59.32
22917;DHT22;11624;53.250;7.456;2023-12-20T01:19:01;11.78;59.17
22917;DHT22;11624;53.250;7.456;2023-12-20T01:21:29;11.78;59.03
22917;DHT22;11624;53.250;7.456;2023-12-20T01:23:58;11.79;59.16
22917;DHT22;11624;53.250;7.456;2023-12-20T01:26:27;11.87;59.06
22917;DHT22;11624;53.250;7.456;2023-12-20T01:28:55;11.86;59.09
22917;DHT22;11624;53.250;7.456;2023-12-20T01:31:23;11.90;59.27
22917;DHT22;11624;53.250;7.456;2023-12-20T01:33:54;11.97;59.25
22917;DHT22;11624;53.250;7.456;2023-12-20T01:36:22;11.99;59.22
22917;DHT22;11624;53.250;7.456;2023-12-20T01:38:50;12.07;59.17
22917;DHT22;11624;53.250;7.456;2023-12-20T01:41:19;12.04;59.10
22917;DHT22;11624;53.250;7.456;2023-12-20T01:43:48;12.05;59.24
22917;DHT22;11624;53.250;7.456;2023-12-20T01:46:19;12.07;59.12
22917;DHT22;11624;53.250;7.456;2023-12-20T01:48:48;12.11;59.06
22917;DHT22;11624;53.250;7.456;2023-12-20T01:51:17;12.04;58.99
22917;DHT22;11624;53.250;7.456;2023-12-20T01:53:46;12.08;58.93
22917;DHT22;11624;53.250;7.456;2023-12-20T01:56:15;12.13;58.80
22917;DHT22;11624;53.250;7.456;2023-12-20T01:58:45;12.16;58.81
22917;DHT22;11624;53.250;7.456;2023-12-20T02:01:15;12.25;58.49
22917;DHT22;11624;53.250;7.456;2023-12-20T02:03:44;12.21;58.61
22917;DHT22;11624;53.250;7.456;2023-12-20T02:06:13;12.29;58.61
22917;DHT22;11624;53.250;7.456;2023-12-20T02:08:41;12.30;58.49
22917;DHT22;11624;53.250;7.456;2023-12-20T02:11:10;12.32;58.45
22917;DHT22;11624;53.250;7.456;2023-12-20T02:13:38;12.28;58.42
22917;DHT22;11624;53.250;7.456;2023-12-20T02:16:06;12.36;58.30
22917;DHT22;11624;53.250;7.456;2023-12-20T02:18:36;12.40;58.16
22917;DHT22;11624;53.250;7.456;2023-12-20T02:21:05;12.34;58.48
22917;DHT22;11624;53.250;7.456;2023-12-20T02:23:34;12.30;58.65
22917;DHT22;11624;53.250;7.456;2023-12-20T02:26:03;12.35;58.67
22917;DHT22;11624;53.250;7.456;2023-12-20T02:28:33;12.42;58.53
22917;DHT22;11624;53.250;7.456;2023-12-20T02:31:02;12.38;58.54
22917;DHT22;11624;53.250;7.456;2023-12-20T02:33:31;12.36;58.51
22917;DHT22;11624;53.250;7.456;2023-12-20T02:35:59;12.33;58.55
22917;DHT22;11624;53.250;7.456;2023-12-20T02:38:27;12.32;58.45
22917;DHT22;11624;53.250;7.456;2023-12-20T02:40:57;12.23;58.19
22917;DHT22;11624;53.250;7.456;2023-12-20T02:43:25;12.33;58.26
22917;DHT22;11624;53.250;7.456;2023-12-20T02:45:53;12.36;58.09
22917;DHT22;11624;53.250;7.456;2023-12-20T02:48:22;12.36;58.16
22917;DHT22;11624;53.250;7.456;2023-12-20T02:50:51;12.43;58.06
22917;DHT22;11624;53.250;7.456;2023-12-20T02:53:19;12.42;58.11
22917;DHT22;11624;53.250;7.456;2023-12-20T02:55:47;12.41;58.10
22917;DHT22;11624;53.250;7.456;2023-12-20T02:58:17;12.40;57.96
22917;DHT22;11624;53.250;7.456;2023-12-20T03:00:45;12.35;58.18
22917;DHT22;11624;53.250;7.456;2023-12-20T03:03:14;12.32;58.18
22917;DHT22;11624;53.250;7.456;2023-12-20T03:05:42;12.27;58.36
22917;DHT22;11624;53.250;7.456;2023-12-20T03:08:10;12.33;57.98
22917;DHT22;11624;53.250;7.456;2023-12-20T03:10:38;12.31;57.77
22917;DHT22;11624;53.250;7.456;2023-12-20T03:13:07;12.29;57.66
22917;DHT22;11624;53.250;7.456;2023-12-20T03:15:36;12.25;57.37
22917;DHT22;11624;53.250;7.456;2023-12-20T03:18:05;12.25;57.47
22917;DHT22;11624;53.250;7.456;2023-12-20T03:20:33;12.22;57.42
22917;DHT22;11624;53.250;7.456;2023-12-20T03:23:01;12.26;57.35
22917;DHT22;11624;53.250;7.456;2023-12-20T03:25:29;12.22;57.39
22917;DHT22;11624;53.250;7.456;2023-12-20T03:27:58;12.21;57.55
22917;DHT22;11624;53.250;7.456;2023-12-20T03:30:26;12.23;57.58
22917;DHT22;11624;53.250;7.456;2023-12-20T03:32:55;12.28;57.55
22917;DHT22;11624;53.250;7.456;2023-12-20T03:35:24;12.29;57.80
22917;DHT22;11624;53.250;7.456;2023-12-20T03:37:52;12.33;57.78
22917;DHT22;11624;53.250;7.456;2023-12-20T03:40:20;12.40;57.71
22917;DHT22;11624;53.250;7.456;2023-12-20T03:42:49;12.42;57.80
22917;DHT22;11624;53.250;7.456;2023-12-20T03:45:18;12.38;57.58
22917;DHT22;11624;53.250;7.456;2023-12-20T03:47:46;12.35;57.71
22917;DHT22;11624;53.250;7.456;2023-12-20T03:50:16;12.36;57.66
22917;DHT22;11624;53.250;7.456;2023-12-20T03:52:45;12.30;57.76
22917;DHT22;11624;53.250;7.456;2023-12-20T03:55:13;12.21;57.89
22917;DHT22;11624;53.250;7.456;2023-12-20T03:57:41;12.25;57.81
22917;DHT22;11624;53.250;7.456;2023-12-20T04:00:11;12.19;57.92
22917;DHT22;11624;53.250;7.456;2023-12-20T04:02:40;12.16;57.99
22917;DHT22;11624;53.250;7.456;2023-12-20T04:05:09;12.14;58.11
22917;DHT22;11624;53.250;7.456;2023-12-20T04:07:39;12.21;58.28
22917;DHT22;11624;53.250;7.456;2023-12-20T04:10:08;12.25;58.25
22917;DHT22;11624;53.250;7.456;2023-12-20T04:12:36;12.22;58.48
22917;DHT22;11624;53.250;7.456;2023-12-20T04:15:05;12.22;58.69
22917;DHT22;11624;53.250;7.456;2023-12-20T04:17:36;12.26;58.75
22917;DHT22;11624;53.250;7.456;2023-12-20T04:20:06;12.28;58.76
22917;DHT22;11624;53.250;7.456;2023-12-20T04:22:34;12.30;58.80
22917;DHT22;11624;53.250;7.456;2023-12-20T04:25:04;12.36;58.70
22917;DHT22;11624;53.250;7.456;2023-12-20T04:27:33;12.43;58.69
22917;DHT22;11624;53.250;7.456;2023-12-20T04:30:01;12.41;58.56
22917;DHT22;11624;53.250;7.456;2023-12-20T04:32:29;12.46;58.29
22917;DHT22;11624;53.250;7.456;2023-12-20T04:34:58;12.47;57.92
22917;DHT22;11624;53.250;7.456;2023-12-20T04:37:26;12.34;57.87
22917;DHT22;11624;53.250;7.456;2023-12-20T04:39:55;12.31;57.82
22917;DHT22;11624;53.250;7.456;2023-12-20T04:42:24;12.30;57.94
22917;DHT22;11624;53.250;7.456;2023-12-20T04:44:52;12.34;57.84
22917;DHT22;11624;53.250;7.456;2023-12-20T04:47:21;12.33;57.88
22917;DHT22;11624;53.250;7.456;2023-12-20T04:49:49;12.35;57.89
22917;DHT22;11624;53.250;7.456;2023-12-20T04:52:18;12.36;57.86
22917;DHT22;11624;53.250;7.456;2023-12-20T04:54:47;12.43;57.87
22917;DHT22;11624;53.250;7.456;2023-12-20T04:57:15;12.45;57.98
22917;DHT22;11624;53.250;7.456;2023-12-20T04:59:45;12.43;58.13
22917;DHT22;11624;53.250;7.456;2023-12-20T05:02:13;12.48;58.27
22917;DHT22;11624;53.250;7.456;2023-12-20T05:04:41;12.56;58.19
22917;DHT22;11624;53.250;7.456;2023-12-20T05:07:09;12.64;58.11
22917;DHT22;11624;53.250;7.456;2023-12-20T05:09:37;12.51;58.48
22917;DHT22;11624;53.250;7.456;2023-12-20T05:12:06;12.58;58.48
22917;DHT22;11624;53.250;7.456;2023-12-20T05:14:35;12.57;58.51
22917;DHT22;11624;53.250;7.456;2023-12-20T05:17:04;12.55;58.64
22917;DHT22;11624;53.250;7.456;2023-12-20T05:19:32;12.59;58.77
22917;DHT22;11624;53.250;7.456;2023-12-20T05:22:02;12.63;58.58
22917;DHT22;11624;53.250;7.456;2023-12-20T05:24:31;12.71;58.49
22917;DHT22;11624;53.250;7.456;2023-12-20T05:26:59;12.75;58.43
22917;DHT22;11624;53.250;7.456;2023-12-20T05:29:27;12.74;58.39
22917;DHT22;11624;53.250;7.456;2023-12-20T05:31:55;12.74;58.35
22917;DHT22;11624;53.250;7.456;2023-12-20T05:34:25;12.75;58.13
22917;DHT22;11624;53.250;7.456;2023-12-20T05:36:53;12.82;58.09
22917;DHT22;11624;53.250;7.456;2023-12-20T05:39:22;12.80;58.13
22917;DHT22;11624;53.250;7.456;2023-12-20T05:41:50;12.80;58.09
22917;DHT22;11624;53.250;7.456;2023-12-20T05:44:18;12.77;58.00
22917;DHT22;11624;53.250;7.456;2023-12-20T05:46:46;12.89;57.98
22917;DHT22;11624;53.250;7.456;2023-12-20T05:49:15;12.95;57.87
22917;DHT22;11624;53.250;7.456;2023-12-20T05:51:44;12.96;57.74
22917;DHT22;11624;53.250;7.456;2023-12-20T05:54:12;13.02;57.64
22917;DHT22;11624;53.250;7.456;2023-12-20T05:56:41;13.10;57.48
22917;DHT22;11624;53.250;7.456;2023-12-20T05:59:09;13.07;57.53
22917;DHT22;11624;53.250;7.456;2023-12-20T06:01:37;13.01;57.70
22917;DHT22;11624;53.250;7.456;2023-12-20T06:04:05;13.03;57.50
22917;DHT22;11624;53.250;7.456;2023-12-20T06:06:34;13.11;57.32
22917;DHT22;11624;53.250;7.456;2023-12-20T06:09:04;13.05;57.55
22917;DHT22;11624;53.250;7.456;2023-12-20T06:11:32;13.02;57.76
22917;DHT22;11624;53.250;7.456;2023-12-20T06:14:00;13.09;57.63
22917;DHT22;11624;53.250;7.456;2023-12-20T06:16:29;13.05;57.63
22917;DHT22;11624;53.250;7.456;2023-12-20T06:18:57;13.07;57.75
22917;DHT22;11624;53.250;7.456;2023-12-20T06:21:25;13.03;57.77
22917;DHT22;11624;53.250;7.456;2023-12-20T06:23:53;13.09;57.80
22917;DHT22;11624;53.250;7.456;2023-12-20T06:26:23;13.14;57.77
22917;DHT22;11624;53.250;7.456;2023-12-20T06:28:51;13.08;57.84
22917;DHT22;11624;53.250;7.456;2023-12-20T06:31:19;13.09;57.86
22917;DHT22;11624;53.250;7.456;2023-12-20T06:33:47;13.15;57.77
22917;DHT22;11624;53.250;7.456;2023-12-20T06:36:24;13.18;57.70
22917;DHT22;11624;53.250;7.456;2023-12-20T06:38:52;13.06;57.97
22917;DHT22;11624;53.250;7.456;2023-12-20T06:41:20;13.14;57.82
22917;DHT22;11624;53.250;7.456;2023-12-20T06:43:52;13.07;57.99
22917;DHT22;11624;53.250;7.456;2023-12-20T06:46:21;13.14;57.96
22917;DHT22;11624;53.250;7.456;2023-12-20T06:48:49;13.14;58.09
22917;DHT22;11624;53.250;7.456;2023-12-20T06:51:17;13.15;58.13
22917;DHT22;11624;53.250;7.456;2023-12-20T06:53:47;13.16;58.24
22917;DHT22;11624;53.250;7.456;2023-12-20T06:56:15;13.15;58.24
22917;DHT22;11624;53.250;7.456;2023-12-20T06:58:46;13.06;58.58
22917;DHT22;11624;53.250;7.456;2023-12-20T07:01:15;13.10;58.56
22917;DHT22;11624;53.250;7.456;2023-12-20T07:03:44;13.10;58.76
22917;DHT22;11624;53.250;7.456;2023-12-20T07:06:12;13.08;58.76
22917;DHT22;11624;53.250;7.456;2023-12-20T07:08:43;13.10;58.68
22917;DHT22;11624;53.250;7.456;2023-12-20T07:11:12;13.10;58.84
22917;DHT22;11624;53.250;7.456;2023-12-20T07:13:40;13.11;58.66
22917;DHT22;11624;53.250;7.456;2023-12-20T07:16:08;13.16;58.63
22917;DHT22;11624;53.250;7.456;2023-12-20T07:18:38;13.18;58.60
22917;DHT22;11624;53.250;7.456;2023-12-20T07:21:06;13.19;58.66
22917;DHT22;11624;53.250;7.456;2023-12-20T07:23:35;13.08;58.27
22917;DHT22;11624;53.250;7.456;2023-12-20T07:26:03;13.11;58.79
22917;DHT22;11624;53.250;7.456;2023-12-20T07:28:32;13.15;58.87
22917;DHT22;11624;53.250;7.456;2023-12-20T07:31:00;13.20;58.79
22917;DHT22;11624;53.250;7.456;2023-12-20T07:33:28;13.18;58.95
22917;DHT22;11624;53.250;7.456;2023-12-20T07:36:07;13.18;59.09
22917;DHT22;11624;53.250;7.456;2023-12-20T07:38:35;13.23;59.01
22917;DHT22;11624;53.250;7.456;2023-12-20T07:41:04;13.20;59.21
22917;DHT22;11624;53.250;7.456;2023-12-20T07:43:32;13.22;59.18
22917;DHT22;11624;53.250;7.456;2023-12-20T07:46:04;13.22;59.03
22917;DHT22;11624;53.250;7.456;2023-12-20T07:48:33;13.24;59.22
22917;DHT22;11624;53.250;7.456;2023-12-20T07:51:02;13.22;59.21
22917;DHT22;11624;53.250;7.456;2023-12-20T07:53:32;13.20;58.93
22917;DHT22;11624;53.250;7.456;2023-12-20T07:56:01;13.24;58.96
22917;DHT22;11624;53.250;7.456;2023-12-20T07:58:29;13.30;58.95
22917;DHT22;11624;53.250;7.456;2023-12-20T08:01:16;13.32;58.87
22917;DHT22;11624;53.250;7.456;2023-12-20T08:03:45;13.25;59.06
22917;DHT22;11624;53.250;7.456;2023-12-20T08:06:14;13.27;59.08
22917;DHT22;11624;53.250;7.456;2023-12-20T08:08:45;13.31;58.98
22917;DHT22;11624;53.250;7.456;2023-12-20T08:11:27;13.26;59.16
22917;DHT22;11624;53.250;7.456;2023-12-20T08:13:55;13.26;59.16
22917;DHT22;11624;53.250;7.456;2023-12-20T08:16:24;13.27;59.35
22917;DHT22;11624;53.250;7.456;2023-12-20T08:18:52;13.24;59.38
22917;DHT22;11624;53.250;7.456;2023-12-20T08:21:20;13.31;59.30
22917;DHT22;11624;53.250;7.456;2023-12-20T08:23:51;13.20;59.49
22917;DHT22;11624;53.250;7.456;2023-12-20T08:26:19;13.20;59.57
22917;DHT22;11624;53.250;7.456;2023-12-20T08:28:49;13.19;59.62
22917;DHT22;11624;53.250;7.456;2023-12-20T08:31:18;13.26;59.72
22917;DHT22;11624;53.250;7.456;2023-12-20T08:33:47;13.26;59.51
22917;DHT22;11624;53.250;7.456;2023-12-20T08:36:16;13.40;59.22
22917;DHT22;11624;53.250;7.456;2023-12-20T08:38:45;13.44;59.10
22917;DHT22;11624;53.250;7.456;2023-12-20T08:41:16;13.29;58.96
22917;DHT22;11624;53.250;7.456;2023-12-20T08:43:44;13.43;59.04
22917;DHT22;11624;53.250;7.456;2023-12-20T08:46:14;13.49;58.96
22917;DHT22;11624;53.250;7.456;2023-12-20T08:48:42;13.46;58.93
22917;DHT22;11624;53.250;7.456;2023-12-20T08:51:13;13.48;58.67
22917;DHT22;11624;53.250;7.456;2023-12-20T08:53:41;13.45;56.76
22917;DHT22;11624;53.250;7.456;2023-12-20T08:56:12;13.07;55.74
22917;DHT22;11624;53.250;7.456;2023-12-20T08:58:42;12.72;55.56
22917;DHT22;11624;53.250;7.456;2023-12-20T09:01:11;12.44;56.13
22917;DHT22;11624;53.250;7.456;2023-12-20T09:03:39;12.25;56.44
22917;DHT22;11624;53.250;7.456;2023-12-20T09:06:08;12.07;56.98
22917;DHT22;11624;53.250;7.456;2023-12-20T09:08:36;12.00;57.34
22917;DHT22;11624;53.250;7.456;2023-12-20T09:11:04;11.96;57.68
22917;DHT22;11624;53.250;7.456;2023-12-20T09:13:33;11.98;57.90
22917;DHT22;11624;53.250;7.456;2023-12-20T09:16:03;12.03;57.97
22917;DHT22;11624;53.250;7.456;2023-12-20T09:18:31;12.11;58.11
22917;DHT22;11624;53.250;7.456;2023-12-20T09:20:59;12.12;58.27
22917;DHT22;11624;53.250;7.456;2023-12-20T09:23:28;12.19;58.32
22917;DHT22;11624;53.250;7.456;2023-12-20T09:25:57;12.22;58.41
22917;DHT22;11624;53.250;7.456;2023-12-20T09:28:25;12.25;58.59
22917;DHT22;11624;53.250;7.456;2023-12-20T09:30:53;12.26;58.70
22917;DHT22;11624;53.250;7.456;2023-12-20T09:33:23;12.25;58.72
22917;DHT22;11624;53.250;7.456;2023-12-20T09:35:52;12.27;58.80
22917;DHT22;11624;53.250;7.456;2023-12-20T09:38:20;12.26;58.94
22917;DHT22;11624;53.250;7.456;2023-12-20T09:40:49;12.20;58.64
22917;DHT22;11624;53.250;7.456;2023-12-20T09:43:19;12.25;58.49
22917;DHT22;11624;53.250;7.456;2023-12-20T09:45:48;12.28;58.54
22917;DHT22;11624;53.250;7.456;2023-12-20T09:48:17;12.25;58.55
22917;DHT22;11624;53.250;7.456;2023-12-20T09:50:48;12.21;58.40
22917;DHT22;11624;53.250;7.456;2023-12-20T09:53:20;12.35;58.48
22917;DHT22;11624;53.250;7.456;2023-12-20T09:55:51;12.37;58.10
22917;DHT22;11624;53.250;7.456;2023-12-20T09:58:20;12.37;57.90
22917;DHT22;11624;53.250;7.456;2023-12-20T10:00:48;12.44;57.84
22917;DHT22;11624;53.250;7.456;2023-12-20T10:03:18;12.42;57.78
22917;DHT22;11624;53.250;7.456;2023-12-20T10:05:49;12.46;57.41
22917;DHT22;11624;53.250;7.456;2023-12-20T10:08:20;12.65;58.77
22917;DHT22;11624;53.250;7.456;2023-12-20T10:10:49;12.92;57.17
22917;DHT22;11624;53.250;7.456;2023-12-20T10:13:17;13.00;57.04
22917;DHT22;11624;53.250;7.456;2023-12-20T10:15:45;13.35;57.63
22917;DHT22;11624;53.250;7.456;2023-12-20T10:18:14;14.01;57.77
22917;DHT22;11624;53.250;7.456;2023-12-20T10:20:43;14.54;56.12
22917;DHT22;11624;53.250;7.456;2023-12-20T10:23:15;14.81;52.65
22917;DHT22;11624;53.250;7.456;2023-12-20T10:25:55;14.42;51.24
22917;DHT22;11624;53.250;7.456;2023-12-20T10:28:24;14.37;53.04
22917;DHT22;11624;53.250;7.456;2023-12-20T10:30:55;14.53;52.49
22917;DHT22;11624;53.250;7.456;2023-12-20T10:33:25;14.35;51.51
22917;DHT22;11624;53.250;7.456;2023-12-20T10:35:54;14.23;52.46
22917;DHT22;11624;53.250;7.456;2023-12-20T10:38:24;14.45;52.85
22917;DHT22;11624;53.250;7.456;2023-12-20T10:40:55;14.94;53.02
22917;DHT22;11624;53.250;7.456;2023-12-20T10:43:26;15.24;50.48
22917;DHT22;11624;53.250;7.456;2023-12-20T10:45:57;14.89;49.73
22917;DHT22;11624;53.250;7.456;2023-12-20T10:48:26;14.56;50.67
22917;DHT22;11624;53.250;7.456;2023-12-20T10:50:57;14.68;52.34
22917;DHT22;11624;53.250;7.456;2023-12-20T10:53:27;14.86;51.23
22917;DHT22;11624;53.250;7.456;2023-12-20T10:55:56;14.95;50.22
22917;DHT22;11624;53.250;7.456;2023-12-20T10:58:29;14.75;50.07
22917;DHT22;11624;53.250;7.456;2023-12-20T11:01:00;14.52;50.17
22917;DHT22;11624;53.250;7.456;2023-12-20T11:03:32;14.40;50.56
22917;DHT22;11624;53.250;7.456;2023-12-20T11:06:07;14.20;51.06
22917;DHT22;11624;53.250;7.456;2023-12-20T11:08:43;14.10;51.36
22917;DHT22;11624;53.250;7.456;2023-12-20T11:11:20;14.10;51.41
22917;DHT22;11624;53.250;7.456;2023-12-20T11:13:55;14.07;51.52
22917;DHT22;11624;53.250;7.456;2023-12-20T11:16:25;14.05;51.11
22917;DHT22;11624;53.250;7.456;2023-12-20T11:19:06;14.09;51.15
22917;DHT22;11624;53.250;7.456;2023-12-20T11:21:35;14.17;51.15
22917;DHT22;11624;53.250;7.456;2023-12-20T11:24:05;14.23;50.74
22917;DHT22;11624;53.250;7.456;2023-12-20T11:26:33;14.22;51.18
22917;DHT22;11624;53.250;7.456;2023-12-20T11:29:30;14.23;51.26
22917;DHT22;11624;53.250;7.456;2023-12-20T11:31:59;14.30;51.46
22917;DHT22;11624;53.250;7.456;2023-12-20T11:34:29;14.44;52.21
22917;DHT22;11624;53.250;7.456;2023-12-20T11:37:00;14.72;52.74
22917;DHT22;11624;53.250;7.456;2023-12-20T11:39:30;15.11;51.92
22917;DHT22;11624;53.250;7.456;2023-12-20T11:42:04;15.54;50.40
22917;DHT22;11624;53.250;7.456;2023-12-20T11:44:33;16.01;49.33
22917;DHT22;11624;53.250;7.456;2023-12-20T11:47:01;16.26;48.39
22917;DHT22;11624;53.250;7.456;2023-12-20T11:49:29;16.52;47.44
22917;DHT22;11624;53.250;7.456;2023-12-20T11:51:58;16.62;46.41
22917;DHT22;11624;53.250;7.456;2023-12-20T11:54:29;16.66;46.22
22917;DHT22;11624;53.250;7.456;2023-12-20T11:56:57;16.90;45.75
22917;DHT22;11624;53.250;7.456;2023-12-20T11:59:26;17.05;45.14
22917;DHT22;11624;53.250;7.456;2023-12-20T12:01:54;17.18;43.87
22917;DHT22;11624;53.250;7.456;2023-12-20T12:04:27;17.11;43.94
22917;DHT22;11624;53.250;7.456;2023-12-20T12:06:56;16.82;43.82
22917;DHT22;11624;53.250;7.456;2023-12-20T12:09:24;16.93;43.74
22917;DHT22;11624;53.250;7.456;2023-12-20T12:11:53;16.93;42.93
22917;DHT22;11624;53.250;7.456;2023-12-20T12:14:22;16.74;42.56
22917;DHT22;11624;53.250;7.456;2023-12-20T12:16:50;16.58;43.11
22917;DHT22;11624;53.250;7.456;2023-12-20T12:19:20;16.29;43.33
22917;DHT22;11624;53.250;7.456;2023-12-20T12:21:49;16.03;44.24
22917;DHT22;11624;53.250;7.456;2023-12-20T12:24:20;15.87;44.87
22917;DHT22;11624;53.250;7.456;2023-12-20T12:26:57;15.68;45.38
22917;DHT22;11624;53.250;7.456;2023-12-20T12:29:25;15.45;46.12
22917;DHT22;11624;53.250;7.456;2023-12-20T12:31:54;15.32;46.60
22917;DHT22;11624;53.250;7.456;2023-12-20T12:34:22;15.24;46.98
22917;DHT22;11624;53.250;7.456;2023-12-20T12:36:50;15.13;47.41
22917;DHT22;11624;53.250;7.456;2023-12-20T12:39:19;15.02;47.93
22917;DHT22;11624;53.250;7.456;2023-12-20T12:41:48;14.94;48.08
22917;DHT22;11624;53.250;7.456;2023-12-20T12:44:17;14.80;48.42
22917;DHT22;11624;53.250;7.456;2023-12-20T12:46:46;14.71;48.99
22917;DHT22;11624;53.250;7.456;2023-12-20T12:49:17;14.59;49.35
22917;DHT22;11624;53.250;7.456;2023-12-20T12:51:45;14.43;49.84
22917;DHT22;11624;53.250;7.456;2023-12-20T12:54:13;14.30;50.10
22917;DHT22;11624;53.250;7.456;2023-12-20T12:56:43;14.26;50.30
22917;DHT22;11624;53.250;7.456;2023-12-20T12:59:12;14.20;50.34
22917;DHT22;11624;53.250;7.456;2023-12-20T13:01:41;14.15;50.53
22917;DHT22;11624;53.250;7.456;2023-12-20T13:04:10;14.10;50.55
22917;DHT22;11624;53.250;7.456;2023-12-20T13:06:39;14.04;50.72
22917;DHT22;11624;53.250;7.456;2023-12-20T13:09:08;13.97;50.90
22917;DHT22;11624;53.250;7.456;2023-12-20T13:11:37;13.85;51.21
22917;DHT22;11624;53.250;7.456;2023-12-20T13:14:05;13.85;51.33
22917;DHT22;11624;53.250;7.456;2023-12-20T13:16:37;13.78;51.46
22917;DHT22;11624;53.250;7.456;2023-12-20T13:19:07;13.74;51.66
22917;DHT22;11624;53.250;7.456;2023-12-20T13:21:35;13.73;51.61
22917;DHT22;11624;53.250;7.456;2023-12-20T13:24:04;13.68;51.69
22917;DHT22;11624;53.250;7.456;2023-12-20T13:26:33;13.73;51.42
22917;DHT22;11624;53.250;7.456;2023-12-20T13:29:01;13.70;51.53
22917;DHT22;11624;53.250;7.456;2023-12-20T13:31:29;13.65;51.79
22917;DHT22;11624;53.250;7.456;2023-12-20T13:33:58;13.80;51.66
22917;DHT22;11624;53.250;7.456;2023-12-20T13:36:29;13.84;51.57
22917;DHT22;11624;53.250;7.456;2023-12-20T13:38:57;13.85;51.56
22917;DHT22;11624;53.250;7.456;2023-12-20T13:41:25;13.85;51.69
22917;DHT22;11624;53.250;7.456;2023-12-20T13:43:53;13.83;51.59
22917;DHT22;11624;53.250;7.456;2023-12-20T13:46:21;13.80;51.53
22917;DHT22;11624;53.250;7.456;2023-12-20T13:48:50;13.83;51.57
22917;DHT22;11624;53.250;7.456;2023-12-20T13:51:19;13.83;51.53
22917;DHT22;11624;53.250;7.456;2023-12-20T13:53:49;13.79;51.60
22917;DHT22;11624;53.250;7.456;2023-12-20T13:56:17;13.78;51.69
22917;DHT22;11624;53.250;7.456;2023-12-20T13:58:47;13.78;51.74
22917;DHT22;11624;53.250;7.456;2023-12-20T14:01:15;13.78;51.79
22917;DHT22;11624;53.250;7.456;2023-12-20T14:03:43;13.81;51.58
22917;DHT22;11624;53.250;7.456;2023-12-20T14:06:12;13.77;51.85
22917;DHT22;11624;53.250;7.456;2023-12-20T14:08:41;13.79;51.89
22917;DHT22;11624;53.250;7.456;2023-12-20T14:11:11;13.82;51.83
22917;DHT22;11624;53.250;7.456;2023-12-20T14:13:42;13.78;51.95
22917;DHT22;11624;53.250;7.456;2023-12-20T14:16:10;13.76;52.11
22917;DHT22;11624;53.250;7.456;2023-12-20T14:18:39;13.67;52.28
22917;DHT22;11624;53.250;7.456;2023-12-20T14:21:07;13.62;52.84
22917;DHT22;11624;53.250;7.456;2023-12-20T14:23:35;13.56;53.16
22917;DHT22;11624;53.250;7.456;2023-12-20T14:26:04;13.55;53.41
22917;DHT22;11624;53.250;7.456;2023-12-20T14:28:33;13.50;53.86
22917;DHT22;11624;53.250;7.456;2023-12-20T14:31:02;13.52;54.04
22917;DHT22;11624;53.250;7.456;2023-12-20T14:33:30;13.52;54.37
22917;DHT22;11624;53.250;7.456;2023-12-20T14:35:58;13.49;54.68
22917;DHT22;11624;53.250;7.456;2023-12-20T14:38:25;13.38;55.37
22917;DHT22;11624;53.250;7.456;2023-12-20T14:40:54;13.40;55.43
22917;DHT22;11624;53.250;7.456;2023-12-20T14:43:22;13.39;55.60
22917;DHT22;11624;53.250;7.456;2023-12-20T14:45:52;13.41;55.55
22917;DHT22;11624;53.250;7.456;2023-12-20T14:48:20;13.47;55.60
22917;DHT22;11624;53.250;7.456;2023-12-20T14:50:48;13.46;55.74
22917;DHT22;11624;53.250;7.456;2023-12-20T14:53:17;13.48;55.72
22917;DHT22;11624;53.250;7.456;2023-12-20T14:55:49;13.43;55.81
22917;DHT22;11624;53.250;7.456;2023-12-20T14:58:17;13.44;55.80
22917;DHT22;11624;53.250;7.456;2023-12-20T15:00:46;13.35;56.03
22917;DHT22;11624;53.250;7.456;2023-12-20T15:03:15;13.34;55.97
22917;DHT22;11624;53.250;7.456;2023-12-20T15:05:45;13.36;55.84
22917;DHT22;11624;53.250;7.456;2023-12-20T15:08:14;13.37;55.81
22917;DHT22;11624;53.250;7.456;2023-12-20T15:10:43;13.29;55.98
22917;DHT22;11624;53.250;7.456;2023-12-20T15:13:11;13.27;56.09
22917;DHT22;11624;53.250;7.456;2023-12-20T15:15:39;13.23;56.27
22917;DHT22;11624;53.250;7.456;2023-12-20T15:18:11;13.12;56.68
22917;DHT22;11624;53.250;7.456;2023-12-20T15:20:41;13.04;56.31
22917;DHT22;11624;53.250;7.456;2023-12-20T15:23:11;12.84;56.45
22917;DHT22;11624;53.250;7.456;2023-12-20T15:25:40;12.82;56.52
22917;DHT22;11624;53.250;7.456;2023-12-20T15:28:09;12.80;56.64
22917;DHT22;11624;53.250;7.456;2023-12-20T15:30:38;12.84;56.85
22917;DHT22;11624;53.250;7.456;2023-12-20T15:33:06;12.85;56.88
22917;DHT22;11624;53.250;7.456;2023-12-20T15:35:34;12.84;56.99
22917;DHT22;11624;53.250;7.456;2023-12-20T15:38:04;12.85;56.84
22917;DHT22;11624;53.250;7.456;2023-12-20T15:40:33;12.84;56.89
22917;DHT22;11624;53.250;7.456;2023-12-20T15:43:01;12.78;56.84